Airfield :
LOGIN :

Register | Disclaimer

   EN    FR    IT 

 










Legend :    VFR   Marginal VFR   IFR   Intensive IFR   Very Intensive IFR
Visi :
Ceiling :
>= 8 km
>= 3000ft
5 to 8 km
1000 to 3000 ft
1500m to 5 km
500 to 1000 ft
800 to 1500m
200 to 500 ft
< 800m
< 200 ft
Symbols :   Thunderstorms  Fog  Heavy snow  Heavy precipitations  Wind > 20 kt
SIGMETs :     Misc.  Thunderstorms  Icing  Turbulence  Mountain Waves  Volcanic Ashes






- Airport Elevation : 37 ft
- IATA code : OLB


LIEO - Olbia Costa Smeralda

CURRENT METAR :
  • 201350Z 09007KT 070V130 CAVOK 15/07 Q1019

EXPIRED METARs :
  • 201320Z 09007KT 060V130 CAVOK 15/08 Q1019
  • 201250Z VRB03KT CAVOK 16/06 Q1019
  • 201220Z 35005KT 300V030 CAVOK 15/05 Q1020
  • 201150Z VRB03KT CAVOK 15/06 Q1020
  • 201120Z 05004KT 020V090 CAVOK 14/07 Q1021

TAF TAF LIEO
Valid from the 20 at 12:00 until the 21 at 12:00 UTC


201100Z 2012/2112 08010KT 9999 SCT040



MET'MAP, your aeronautical weather chart ! - Copyright ORBIFLY December 2007 - Disclaimer

ORBIFLY MET'MAP TEAM :

Programming & Development : Alexandra Zaïnal
Concept & original design : Baudouin d'Aumeries
Assistance for programming : Marc-Olivier Méhu
Technical & hardware support : Manuel Goepfert

Contact : metmap@orbifly.com




SOURCES & CREDITS :

   NOAA